MYAG weather

CLOSED Castaway Cay (Gorda Cay) Airstrip
Bahamas

Public forecast

Using degrees Celsius for public forecast. Weather courtesy of forecast.io.

METAR (pilot weather report)

Closest report is Lynden Pindling International Airport, 63.3 nm (117.2 km) S. Retrieved 2019/09/18 02:00 UTC (8 minutes ago):

MYNN 180200Z 01008KT 9999 FEW018 SCT100 28/23 A2992

TAF (pilot weather forecast)

Forecast is more than 12 hours old.

Closest forecast is Lynden Pindling International Airport, 63.3 nm (117.2 km) S. Retrieved 2019/09/17 00:41 UTC (1 day ago):

TAF MYNN 172230Z 1800/1824 33010G20KT 9999 FEW018CB SCT020 PROB30 TEMPO 1814/1817 9000 SHRA SCT018CB